Mont Alto, Pennsylvania
Current Conditions -  °F | °C
As of 7:53 PM on Friday 31 Oct 2014 (Local Time) from KHGR Reporting Station
Overcast Overcast  
Wind Chill: 50°   Ceiling: 6000
Heat Index: 50°   Visibility: 10mi
Dew Point: 35°   Wind: 3mph
Humidity: 57%   Direction: 10°N
Pressure: 29.87"   Gusts: NA
Location:  39.84°N, 77.56°W
Report Text: KHGR 312353Z 01003KT 10SM OVC060 10/02 A2987 RMK AO2 SLP125 T01000017 10111 20100 56000
Loading
Personal Weather Stations






























Interactive Weather Map
Tropical Storm Tracking
New forecast layout! Learn more

10-Day Weather Forecast

Advertisements
Track Severe Weather on mobile